createdAt,value
2022-10-17T00:00:08.785Z,2.90
2022-10-17T00:02:35.073Z,2.88
2022-10-17T00:05:01.447Z,2.25
2022-10-17T00:07:27.976Z,2.67
2022-10-17T00:09:54.509Z,2.67
2022-10-17T00:12:20.860Z,2.92
2022-10-17T00:14:47.221Z,2.50
2022-10-17T00:17:15.106Z,2.17
2022-10-17T00:19:42.370Z,3.67
2022-10-17T00:22:08.760Z,2.17
2022-10-17T00:24:35.090Z,2.30
2022-10-17T00:27:01.524Z,2.42
2022-10-17T00:29:27.835Z,2.83
2022-10-17T00:31:56.252Z,2.30
2022-10-17T00:34:23.480Z,2.33
2022-10-17T00:36:49.820Z,2.42
2022-10-17T00:39:16.209Z,3.38
2022-10-17T00:41:42.797Z,3.22
2022-10-17T00:44:31.027Z,2.92
2022-10-17T00:47:04.574Z,2.28
2022-10-17T00:49:33.150Z,2.50
2022-10-17T00:52:04.688Z,3.35
2022-10-17T00:54:33.866Z,2.50
2022-10-17T00:57:01.153Z,2.47
2022-10-17T00:59:29.762Z,2.47
2022-10-17T01:02:13.730Z,2.75
2022-10-17T01:04:43.077Z,2.92
2022-10-17T01:07:10.025Z,3.20
2022-10-17T01:09:37.280Z,3.90
2022-10-17T01:12:26.794Z,3.75
2022-10-17T01:15:18.183Z,3.50
2022-10-17T01:18:14.594Z,2.78
2022-10-17T01:20:53.221Z,2.42
2022-10-17T01:23:22.647Z,2.90
2022-10-17T01:26:19.545Z,2.67
2022-10-17T01:29:01.240Z,2.38
2022-10-17T01:31:47.609Z,3.03
2022-10-17T01:34:27.177Z,2.70
2022-10-17T01:36:56.250Z,2.97
2022-10-17T01:39:38.508Z,3.05
2022-10-17T01:42:18.088Z,2.70
2022-10-17T01:45:23.092Z,3.13
2022-10-17T01:47:52.479Z,2.90
2022-10-17T01:50:24.787Z,2.78
2022-10-17T01:52:56.933Z,3.22
2022-10-17T01:55:31.713Z,3.20
2022-10-17T01:58:04.064Z,3.15
2022-10-17T02:00:32.348Z,2.90
2022-10-17T02:03:02.453Z,3.05
2022-10-17T02:05:35.500Z,3.05
2022-10-17T02:08:01.908Z,3.60
2022-10-17T02:10:52.872Z,3.40
2022-10-17T02:13:28.879Z,3.75
2022-10-17T02:16:04.326Z,3.28
2022-10-17T02:18:52.647Z,4.03
2022-10-17T02:21:27.296Z,3.67
2022-10-17T02:24:33.076Z,3.75
2022-10-17T02:27:09.619Z,3.17
2022-10-17T02:29:50.190Z,3.63
2022-10-17T02:32:24.639Z,3.60
2022-10-17T02:34:55.301Z,3.83
2022-10-17T02:37:26.628Z,3.88
2022-10-17T02:39:56.885Z,3.30
2022-10-17T02:42:26.324Z,3.40
2022-10-17T02:44:54.923Z,3.40
2022-10-17T02:47:32.063Z,4.10
2022-10-17T02:49:58.554Z,3.40
2022-10-17T02:52:47.877Z,4.32
2022-10-17T02:55:24.461Z,4.22
2022-10-17T02:57:54.475Z,4.70
2022-10-17T03:00:24.979Z,4.40
2022-10-17T03:02:53.547Z,4.57
2022-10-17T03:05:25.868Z,4.30
2022-10-17T03:07:52.931Z,4.40
2022-10-17T03:10:20.218Z,4.35
2022-10-17T03:12:46.589Z,4.75
2022-10-17T03:15:13.597Z,4.38
2022-10-17T03:17:39.981Z,4.72
2022-10-17T03:20:07.210Z,4.78
2022-10-17T03:22:33.845Z,4.60
2022-10-17T03:25:00.216Z,4.32
2022-10-17T03:27:26.793Z,4.50
2022-10-17T03:29:53.266Z,4.75
2022-10-17T03:32:19.643Z,5.00
2022-10-17T03:34:46.048Z,4.90
2022-10-17T03:37:12.422Z,4.70
2022-10-17T03:39:38.805Z,4.40
2022-10-17T03:42:05.169Z,5.30
2022-10-17T03:44:31.496Z,5.25
2022-10-17T03:46:57.956Z,5.45
2022-10-17T03:49:24.419Z,5.30
2022-10-17T03:51:50.770Z,5.10
2022-10-17T03:54:17.096Z,5.18
2022-10-17T03:56:43.933Z,5.97
2022-10-17T03:59:14.910Z,5.55
2022-10-17T04:01:41.929Z,6.10
2022-10-17T04:04:08.648Z,5.78
2022-10-17T04:06:36.072Z,5.97
2022-10-17T04:09:04.015Z,6.10
2022-10-17T04:11:30.406Z,5.93
2022-10-17T04:13:59.205Z,6.03
2022-10-17T04:16:25.651Z,5.68
2022-10-17T04:18:56.840Z,6.28
2022-10-17T04:21:24.936Z,6.63
2022-10-17T04:23:55.502Z,6.35
2022-10-17T04:26:22.128Z,6.55
2022-10-17T04:28:48.823Z,6.22
2022-10-17T04:31:15.307Z,6.07
2022-10-17T04:33:42.314Z,6.47
2022-10-17T04:36:12.857Z,6.05
2022-10-17T04:38:39.658Z,6.30
2022-10-17T04:41:11.039Z,6.38
2022-10-17T04:43:38.830Z,5.82
2022-10-17T04:46:11.389Z,5.80
2022-10-17T04:48:38.678Z,5.65
2022-10-17T04:51:08.213Z,5.78
2022-10-17T04:53:36.450Z,5.97
2022-10-17T04:56:12.874Z,6.40
2022-10-17T04:58:40.351Z,6.63
2022-10-17T05:01:09.141Z,7.20
2022-10-17T05:03:36.365Z,5.78
2022-10-17T05:06:16.154Z,5.60
2022-10-17T05:08:43.221Z,6.00
2022-10-17T05:11:24.534Z,5.35
2022-10-17T05:13:55.553Z,5.70
2022-10-17T05:16:22.681Z,5.88
2022-10-17T05:18:52.966Z,6.05
2022-10-17T05:21:20.573Z,5.43
2022-10-17T05:23:46.963Z,5.60
2022-10-17T05:26:14.021Z,5.80
2022-10-17T05:28:41.189Z,5.45
2022-10-17T05:31:09.647Z,5.82
2022-10-17T05:33:37.029Z,5.63
2022-10-17T05:36:04.028Z,5.38
2022-10-17T05:38:30.456Z,5.20
2022-10-17T05:40:58.524Z,6.22
2022-10-17T05:43:25.331Z,6.07
2022-10-17T05:45:51.793Z,5.78
2022-10-17T05:48:18.205Z,5.60
2022-10-17T05:50:44.569Z,5.43
2022-10-17T05:53:10.929Z,5.63
2022-10-17T05:55:37.283Z,5.53
2022-10-17T05:58:03.798Z,5.28
2022-10-17T06:00:30.323Z,5.93
2022-10-17T06:02:57.233Z,5.88
2022-10-17T06:05:24.051Z,5.22
2022-10-17T06:07:52.651Z,5.45
2022-10-17T06:10:19.623Z,5.57
2022-10-17T06:12:46.151Z,5.30
2022-10-17T06:15:12.804Z,5.57
2022-10-17T06:17:39.215Z,5.35
2022-10-17T06:20:06.197Z,5.68
2022-10-17T06:22:32.603Z,5.88
2022-10-17T06:24:59.061Z,5.32
2022-10-17T06:27:25.499Z,4.97
2022-10-17T06:29:51.910Z,4.50
2022-10-17T06:32:18.328Z,6.28
2022-10-17T06:34:44.671Z,4.28
2022-10-17T06:37:11.001Z,4.30
2022-10-17T06:39:37.858Z,4.70
2022-10-17T06:42:04.388Z,4.95
2022-10-17T06:44:31.858Z,4.35
2022-10-17T06:46:59.629Z,4.22
2022-10-17T06:49:26.905Z,4.82
2022-10-17T06:51:53.803Z,4.18
2022-10-17T06:54:20.430Z,4.40
2022-10-17T06:56:46.962Z,4.85
2022-10-17T06:59:13.335Z,4.22
2022-10-17T07:01:41.830Z,4.07
2022-10-17T07:04:10.968Z,3.72
2022-10-17T07:06:38.158Z,4.40
2022-10-17T07:09:06.806Z,4.43
2022-10-17T07:11:35.164Z,3.80
2022-10-17T07:14:02.491Z,3.95
2022-10-17T07:16:29.709Z,3.97
2022-10-17T07:18:56.705Z,3.90
2022-10-17T07:21:23.049Z,3.40
2022-10-17T07:23:49.683Z,3.70
2022-10-17T07:26:17.550Z,3.03
2022-10-17T07:28:45.891Z,3.13
2022-10-17T07:31:15.281Z,2.72
2022-10-17T07:33:42.821Z,2.97
2022-10-17T07:36:09.889Z,3.15
2022-10-17T07:38:36.596Z,2.85
2022-10-17T07:41:05.520Z,2.65
2022-10-17T07:43:32.442Z,2.92
2022-10-17T07:46:00.434Z,2.20
2022-10-17T07:48:26.965Z,2.70
2022-10-17T07:50:53.340Z,3.08
2022-10-17T07:53:19.874Z,2.45
2022-10-17T07:55:47.810Z,2.53
2022-10-17T07:58:14.727Z,2.92
2022-10-17T08:00:41.667Z,2.88
2022-10-17T08:03:08.478Z,2.33
2022-10-17T08:05:34.824Z,2.10
2022-10-17T08:08:01.236Z,2.92
2022-10-17T08:10:29.281Z,2.53
2022-10-17T08:12:57.733Z,2.17
2022-10-17T08:15:29.352Z,2.53
2022-10-17T08:17:58.718Z,2.47
2022-10-17T08:20:25.099Z,2.15
2022-10-17T08:22:53.128Z,2.25
2022-10-17T08:25:19.561Z,2.55
2022-10-17T08:27:46.115Z,2.42
2022-10-17T08:30:12.594Z,2.20
2022-10-17T08:32:39.011Z,2.17
2022-10-17T08:35:05.714Z,2.38
2022-10-17T08:37:32.752Z,2.90
2022-10-17T08:39:59.413Z,2.50
2022-10-17T08:43:03.535Z,3.40
2022-10-17T08:45:29.901Z,3.97
2022-10-17T08:48:02.095Z,4.55
2022-10-17T08:50:40.344Z,3.58
2022-10-17T08:53:35.540Z,2.13
2022-10-17T08:56:19.903Z,3.40
2022-10-17T08:58:51.464Z,3.15
2022-10-17T09:01:36.405Z,2.50
2022-10-17T09:04:27.353Z,2.15
2022-10-17T09:07:10.953Z,2.08
2022-10-17T09:09:53.471Z,2.00
2022-10-17T09:12:35.148Z,2.13
2022-10-17T09:15:22.875Z,2.42
2022-10-17T09:18:00.928Z,1.85
2022-10-17T09:20:32.112Z,2.42
2022-10-17T09:23:09.011Z,1.75
2022-10-17T09:25:43.786Z,4.43
2022-10-17T09:28:10.319Z,1.80
2022-10-17T09:30:59.461Z,1.80
2022-10-17T09:33:42.270Z,1.92
2022-10-17T09:36:27.266Z,1.60
2022-10-17T09:38:56.977Z,1.52
2022-10-17T09:41:44.755Z,1.40
2022-10-17T09:44:16.364Z,1.50
2022-10-17T09:46:52.488Z,1.67
2022-10-17T09:49:26.873Z,1.48
2022-10-17T09:51:53.534Z,1.55
2022-10-17T09:54:24.165Z,1.67
2022-10-17T09:57:02.956Z,1.60
2022-10-17T09:59:45.088Z,1.63
2022-10-17T10:02:22.054Z,1.50
2022-10-17T10:05:10.301Z,1.73
2022-10-17T10:07:38.811Z,1.55
2022-10-17T10:10:26.240Z,1.50
2022-10-17T10:13:12.729Z,2.00
2022-10-17T10:15:44.618Z,1.30
2022-10-17T10:18:26.450Z,1.73
2022-10-17T10:21:07.329Z,1.88
2022-10-17T10:23:34.045Z,1.73
2022-10-17T10:26:05.667Z,1.33
2022-10-17T10:28:35.250Z,1.98
2022-10-17T10:31:09.685Z,1.70
2022-10-17T10:33:41.744Z,1.60
2022-10-17T10:36:09.093Z,1.30
2022-10-17T10:38:40.081Z,1.75
2022-10-17T10:41:09.168Z,1.92
2022-10-17T10:43:41.258Z,1.85
2022-10-17T10:46:21.051Z,1.73
2022-10-17T10:48:55.570Z,1.70
2022-10-17T10:51:32.036Z,1.42
2022-10-17T10:54:16.137Z,1.80
2022-10-17T10:56:48.783Z,1.70
2022-10-17T10:59:25.970Z,1.75
2022-10-17T11:01:55.623Z,1.50
2022-10-17T11:04:40.813Z,1.50
2022-10-17T11:07:17.690Z,1.40
2022-10-17T11:10:05.995Z,1.65
2022-10-17T11:12:35.350Z,1.52
2022-10-17T11:15:07.895Z,1.83
2022-10-17T11:17:56.844Z,1.70
2022-10-17T11:20:32.861Z,1.67
2022-10-17T11:23:14.344Z,2.67
2022-10-17T11:25:41.880Z,1.85
2022-10-17T11:28:17.463Z,2.15
2022-10-17T11:31:07.975Z,1.90
2022-10-17T11:33:56.004Z,1.85
2022-10-17T11:36:28.137Z,2.10
2022-10-17T11:39:14.544Z,1.92
2022-10-17T11:42:09.309Z,1.85
2022-10-17T11:44:42.668Z,2.00
2022-10-17T11:47:30.119Z,1.50
2022-10-17T11:53:10.408Z,2.35
2022-10-17T11:55:38.418Z,2.00
2022-10-17T11:58:26.845Z,1.75
2022-10-17T12:01:08.252Z,1.38
2022-10-17T12:03:59.613Z,1.60
2022-10-17T12:06:35.028Z,1.48
2022-10-17T12:09:21.945Z,1.65
2022-10-17T12:11:54.213Z,1.83
2022-10-17T12:14:42.345Z,2.00
2022-10-17T12:17:34.819Z,2.10
2022-10-17T12:20:27.252Z,2.20
2022-10-17T12:23:17.918Z,1.65
2022-10-17T12:26:05.662Z,1.33
2022-10-17T12:28:38.188Z,1.85
2022-10-17T12:31:23.226Z,1.80
2022-10-17T12:33:52.605Z,1.70
2022-10-17T12:36:18.982Z,1.60
2022-10-17T12:38:50.170Z,1.38
2022-10-17T12:41:37.296Z,1.70
2022-10-17T12:44:12.790Z,1.70
2022-10-17T12:46:52.471Z,1.60
2022-10-17T12:49:36.525Z,1.33
2022-10-17T12:52:22.060Z,1.63
2022-10-17T12:55:00.535Z,1.63
2022-10-17T12:58:08.120Z,1.45
2022-10-17T13:03:46.985Z,1.75
2022-10-17T13:06:22.008Z,1.55
2022-10-17T13:08:59.790Z,1.48
2022-10-17T13:11:33.002Z,1.75
2022-10-17T13:14:03.479Z,1.77
2022-10-17T13:16:33.964Z,2.30
2022-10-17T13:19:02.523Z,1.60
2022-10-17T13:21:30.003Z,2.00
2022-10-17T13:23:56.341Z,2.72
2022-10-17T13:26:25.901Z,2.10
2022-10-17T13:29:02.768Z,1.80
2022-10-17T13:31:32.697Z,1.58
2022-10-17T13:34:02.198Z,3.63
2022-10-17T13:36:30.348Z,1.73
2022-10-17T13:38:59.851Z,2.25
2022-10-17T13:41:36.884Z,2.70
2022-10-17T13:44:11.922Z,1.63
2022-10-17T13:46:39.930Z,1.92
2022-10-17T13:49:42.905Z,2.28
2022-10-17T13:52:19.533Z,3.22
2022-10-17T13:54:48.548Z,3.45
2022-10-17T13:57:17.626Z,2.22
2022-10-17T13:59:47.754Z,1.70
2022-10-17T14:02:17.304Z,1.30
2022-10-17T14:05:15.815Z,5.53
2022-10-17T14:08:10.908Z,4.22
2022-10-17T14:10:40.030Z,4.30
2022-10-17T14:13:08.357Z,3.78
2022-10-17T14:15:36.669Z,3.08
2022-10-17T14:18:08.000Z,8.73
2022-10-17T14:23:43.625Z,8.73
2022-10-17T14:26:21.557Z,15.23
2022-10-17T14:29:02.374Z,8.48
2022-10-17T14:31:33.449Z,10.35
2022-10-17T14:34:01.083Z,8.70
2022-10-17T14:36:39.572Z,8.35
2022-10-17T14:39:13.305Z,7.05
2022-10-17T14:41:44.501Z,3.70
2022-10-17T14:44:37.226Z,4.13
2022-10-17T14:47:30.837Z,4.97
2022-10-17T14:50:23.567Z,4.20
2022-10-17T14:53:20.872Z,2.38
2022-10-17T14:56:02.558Z,1.70
2022-10-17T14:58:31.869Z,2.13
2022-10-17T15:01:00.051Z,2.28
2022-10-17T15:03:26.675Z,1.98
2022-10-17T15:05:54.733Z,1.55
2022-10-17T15:08:22.797Z,1.50
2022-10-17T15:10:50.477Z,1.73
2022-10-17T15:13:27.532Z,1.25
2022-10-17T15:15:54.338Z,1.60
2022-10-17T15:18:20.782Z,1.60
2022-10-17T15:20:49.572Z,1.42
2022-10-17T15:23:21.983Z,1.50
2022-10-17T15:25:48.312Z,1.13
2022-10-17T15:28:14.702Z,1.80
2022-10-17T15:30:41.077Z,1.50
2022-10-17T15:33:07.524Z,1.63
2022-10-17T15:35:33.898Z,1.30
2022-10-17T15:38:00.301Z,1.83
2022-10-17T15:40:29.431Z,1.30
2022-10-17T15:42:56.430Z,1.80
2022-10-17T15:45:23.474Z,1.38
2022-10-17T15:47:56.066Z,1.63
2022-10-17T15:50:23.068Z,1.70
2022-10-17T15:52:52.959Z,1.52
2022-10-17T15:55:19.934Z,1.73
2022-10-17T15:57:48.737Z,2.08
2022-10-17T16:00:18.678Z,1.88
2022-10-17T16:02:46.327Z,2.15
2022-10-17T16:05:25.458Z,2.10
2022-10-17T16:07:53.517Z,1.65
2022-10-17T16:10:21.482Z,1.90
2022-10-17T16:12:49.808Z,1.92
2022-10-17T16:15:20.199Z,1.60
2022-10-17T16:17:46.585Z,2.60
2022-10-17T16:20:13.619Z,3.33
2022-10-17T16:22:42.098Z,2.55
2022-10-17T16:25:21.377Z,2.85
2022-10-17T16:27:49.803Z,4.63
2022-10-17T16:30:16.890Z,3.88
2022-10-17T16:32:43.521Z,6.38
2022-10-17T16:35:16.147Z,5.10
2022-10-17T16:37:42.523Z,7.32
2022-10-17T16:40:09.502Z,6.95
2022-10-17T16:42:35.884Z,6.38
2022-10-17T16:45:02.332Z,9.07
2022-10-17T16:47:28.693Z,6.82
2022-10-17T16:49:55.378Z,6.55
2022-10-17T16:52:21.693Z,3.83
2022-10-17T16:54:48.095Z,3.75
2022-10-17T16:57:14.768Z,4.38
2022-10-17T16:59:41.236Z,4.88
2022-10-17T17:02:10.252Z,6.13
2022-10-17T17:04:36.683Z,8.50
2022-10-17T17:07:03.256Z,6.00
2022-10-17T17:09:29.629Z,8.98
2022-10-17T17:11:55.949Z,11.68
2022-10-17T17:14:22.320Z,25.25
2022-10-17T17:16:48.701Z,31.63
2022-10-17T17:19:17.057Z,31.50
2022-10-17T17:21:47.650Z,38.65
2022-10-17T17:24:14.081Z,49.30
2022-10-17T17:26:41.539Z,56.50
2022-10-17T17:29:08.062Z,52.67
2022-10-17T17:31:35.632Z,21.17
2022-10-17T17:34:03.046Z,17.38
2022-10-17T17:36:31.884Z,27.13
2022-10-17T17:39:00.872Z,25.92
2022-10-17T17:41:27.989Z,19.63
2022-10-17T17:43:54.833Z,15.02
2022-10-17T17:46:22.701Z,11.40
2022-10-17T17:48:50.624Z,10.90
2022-10-17T17:51:19.697Z,15.98
2022-10-17T17:53:46.635Z,11.93
2022-10-17T17:56:15.744Z,4.18
2022-10-17T17:58:45.656Z,15.52
2022-10-17T18:01:20.561Z,12.88
2022-10-17T18:03:48.208Z,10.90
2022-10-17T18:06:16.185Z,12.82
2022-10-17T18:08:53.816Z,7.72
2022-10-17T18:11:22.084Z,8.63
2022-10-17T18:13:54.615Z,11.45
2022-10-17T18:16:21.504Z,11.45
2022-10-17T18:18:47.871Z,14.57
2022-10-17T18:21:14.370Z,17.80
2022-10-17T18:23:42.601Z,20.05
2022-10-17T18:26:09.958Z,35.13
2022-10-17T18:28:38.551Z,19.45
2022-10-17T18:31:10.725Z,14.27
2022-10-17T18:33:38.032Z,11.88
2022-10-17T18:36:07.463Z,8.80
2022-10-17T18:38:34.276Z,8.38
2022-10-17T18:41:18.735Z,7.47
2022-10-17T18:43:46.356Z,6.45
2022-10-17T18:46:18.279Z,6.38
2022-10-17T18:48:46.184Z,6.20
2022-10-17T18:51:14.735Z,7.07
2022-10-17T18:53:43.574Z,6.53
2022-10-17T18:56:11.077Z,6.78
2022-10-17T18:58:38.316Z,7.40
2022-10-17T19:01:11.917Z,7.25
2022-10-17T19:03:38.505Z,6.60
2022-10-17T19:06:07.800Z,9.30
2022-10-17T19:08:35.399Z,9.85
2022-10-17T19:11:09.482Z,9.48
2022-10-17T19:13:36.685Z,9.23
2022-10-17T19:16:07.791Z,10.10
2022-10-17T19:18:35.427Z,9.55
2022-10-17T19:21:07.051Z,9.65
2022-10-17T19:23:35.987Z,9.07
2022-10-17T19:26:11.666Z,9.85
2022-10-17T19:28:44.439Z,20.38
2022-10-17T19:31:15.421Z,14.00
2022-10-17T19:33:44.279Z,11.13
2022-10-17T19:36:11.842Z,11.50
2022-10-17T19:38:38.210Z,11.15
2022-10-17T19:41:10.448Z,11.35
2022-10-17T19:43:37.993Z,11.30
2022-10-17T19:46:07.141Z,10.80
2022-10-17T19:48:36.767Z,13.50
2022-10-17T19:51:08.471Z,12.20
2022-10-17T19:53:35.607Z,12.25
2022-10-17T19:56:03.036Z,10.88
2022-10-17T19:58:29.427Z,10.35
2022-10-17T20:00:58.410Z,10.70
2022-10-17T20:03:25.594Z,10.63
2022-10-17T20:05:52.299Z,11.30
2022-10-17T20:08:19.372Z,11.82
2022-10-17T20:10:46.329Z,11.70
2022-10-17T20:13:13.372Z,11.20
2022-10-17T20:15:40.309Z,10.55
2022-10-17T20:18:07.681Z,9.35
2022-10-17T20:20:34.892Z,11.85
2022-10-17T20:23:01.469Z,11.57
2022-10-17T20:25:27.938Z,10.80
2022-10-17T20:27:54.254Z,10.40
2022-10-17T20:30:20.686Z,9.50
2022-10-17T20:32:47.172Z,8.20
2022-10-17T20:35:13.849Z,8.05
2022-10-17T20:37:42.589Z,9.60
2022-10-17T20:40:34.116Z,9.32
2022-10-17T20:42:56.200Z,7.82
2022-10-17T20:45:37.311Z,8.25
2022-10-17T20:48:15.695Z,8.00
2022-10-17T20:50:43.444Z,8.57
2022-10-17T20:53:35.492Z,7.00
2022-10-17T20:56:09.172Z,8.68
2022-10-17T20:58:35.721Z,10.13
2022-10-17T21:01:09.711Z,10.48
2022-10-17T21:03:39.779Z,8.02
2022-10-17T21:06:10.169Z,9.73
2022-10-17T21:08:36.810Z,5.70
2022-10-17T21:11:26.859Z,4.97
2022-10-17T21:13:56.203Z,4.68
2022-10-17T21:16:22.943Z,5.10
2022-10-17T21:18:50.070Z,5.40
2022-10-17T21:21:22.239Z,5.70
2022-10-17T21:23:50.489Z,5.72
2022-10-17T21:26:18.088Z,6.05
2022-10-17T21:28:45.958Z,5.95
2022-10-17T21:31:18.146Z,6.05
2022-10-17T21:33:47.956Z,4.72
2022-10-17T21:36:16.770Z,6.65
2022-10-17T21:38:44.965Z,6.70
2022-10-17T21:41:13.841Z,6.13
2022-10-17T21:43:41.182Z,4.85
2022-10-17T21:46:12.294Z,5.00
2022-10-17T21:48:38.843Z,5.55
2022-10-17T21:51:08.443Z,4.55
2022-10-17T21:53:35.343Z,5.57
2022-10-17T21:56:03.628Z,5.68
2022-10-17T21:58:30.757Z,5.32
2022-10-17T22:01:18.588Z,5.45
2022-10-17T22:03:47.033Z,5.85
2022-10-17T22:06:39.283Z,5.43
2022-10-17T22:09:08.566Z,6.00
2022-10-17T22:11:35.534Z,6.45
2022-10-17T22:14:04.998Z,5.32
2022-10-17T22:16:32.194Z,5.30
2022-10-17T22:19:03.292Z,4.57
2022-10-17T22:21:33.006Z,4.72
2022-10-17T22:24:02.425Z,5.20
2022-10-17T22:26:30.466Z,5.32
2022-10-17T22:28:57.113Z,4.63
2022-10-17T22:31:23.569Z,4.70
2022-10-17T22:33:51.014Z,5.00
2022-10-17T22:36:17.702Z,4.93
2022-10-17T22:38:44.063Z,5.20
2022-10-17T22:41:10.542Z,5.50
2022-10-17T22:43:37.104Z,5.57
2022-10-17T22:46:06.086Z,5.63
2022-10-17T22:48:33.438Z,5.88
2022-10-17T22:51:00.274Z,5.90
2022-10-17T22:53:27.109Z,5.78
2022-10-17T22:55:55.457Z,5.63
2022-10-17T22:58:22.629Z,6.20
2022-10-17T23:00:50.102Z,5.75
2022-10-17T23:03:17.569Z,5.80
2022-10-17T23:05:44.258Z,6.05
2022-10-17T23:08:11.772Z,7.88
2022-10-17T23:10:38.127Z,11.40
2022-10-17T23:13:04.755Z,12.43
2022-10-17T23:15:32.696Z,6.28
2022-10-17T23:18:00.318Z,5.80
2022-10-17T23:20:27.841Z,6.05
2022-10-17T23:22:54.256Z,6.80
2022-10-17T23:25:20.711Z,5.93
2022-10-17T23:27:47.352Z,7.47
2022-10-17T23:30:13.959Z,5.68
2022-10-17T23:32:41.030Z,6.25
2022-10-17T23:35:08.499Z,8.07
2022-10-17T23:37:35.299Z,8.63
2022-10-17T23:40:02.309Z,7.47
2022-10-17T23:42:28.674Z,7.63
2022-10-17T23:44:55.035Z,6.97
2022-10-17T23:47:21.580Z,9.35
2022-10-17T23:49:47.979Z,14.65
2022-10-17T23:52:14.329Z,9.18
2022-10-17T23:57:07.982Z,7.45
2022-10-17T23:59:34.403Z,7.97
